sensor_id;sensor_type;location;lat;lon;timestamp;pressure;altitude;pressure_sealevel;temperature;humidity
12475;BME280;6302;42.624;23.334;2023-05-19T00:00:08;93523.47;;;11.06;100.00
12475;BME280;6302;42.624;23.334;2023-05-19T00:02:39;93519.28;;;11.08;100.00
12475;BME280;6302;42.624;23.334;2023-05-19T00:05:09;93517.44;;;11.05;100.00
12475;BME280;6302;42.624;23.334;2023-05-19T00:07:38;93519.28;;;11.08;100.00
12475;BME280;6302;42.624;23.334;2023-05-19T00:10:07;93509.06;;;11.07;100.00
12475;BME280;6302;42.624;23.334;2023-05-19T00:12:35;93515.91;;;11.04;100.00
12475;BME280;6302;42.624;23.334;2023-05-19T00:15:04;93515.94;;;11.01;100.00
12475;BME280;6302;42.624;23.334;2023-05-19T00:17:30;93508.31;;;11.06;100.00
12475;BME280;6302;42.624;23.334;2023-05-19T00:19:58;93507.22;;;11.00;100.00
12475;BME280;6302;42.624;23.334;2023-05-19T00:22:25;93506.88;;;10.98;100.00
12475;BME280;6302;42.624;23.334;2023-05-19T00:24:54;93501.53;;;11.02;100.00
12475;BME280;6302;42.624;23.334;2023-05-19T00:27:20;93496.63;;;11.00;100.00
12475;BME280;6302;42.624;23.334;2023-05-19T00:29:47;93494.75;;;10.97;100.00
12475;BME280;6302;42.624;23.334;2023-05-19T00:32:14;93489.53;;;10.83;100.00
12475;BME280;6302;42.624;23.334;2023-05-19T00:34:41;93493.66;;;10.88;100.00
12475;BME280;6302;42.624;23.334;2023-05-19T00:37:07;93493.69;;;10.84;100.00
12475;BME280;6302;42.624;23.334;2023-05-19T00:39:34;93499.31;;;10.90;100.00
12475;BME280;6302;42.624;23.334;2023-05-19T00:42:03;93500.44;;;10.92;100.00
12475;BME280;6302;42.624;23.334;2023-05-19T00:44:30;93505.75;;;10.92;100.00
12475;BME280;6302;42.624;23.334;2023-05-19T00:46:57;93503.47;;;10.94;100.00
12475;BME280;6302;42.624;23.334;2023-05-19T00:49:24;93486.06;;;10.93;100.00
12475;BME280;6302;42.624;23.334;2023-05-19T00:51:50;93488.72;;;10.93;100.00
12475;BME280;6302;42.624;23.334;2023-05-19T00:54:18;93486.41;;;10.95;100.00
12475;BME280;6302;42.624;23.334;2023-05-19T00:56:45;93492.50;;;10.92;100.00
12475;BME280;6302;42.624;23.334;2023-05-19T00:59:15;93491.72;;;10.92;100.00
12475;BME280;6302;42.624;23.334;2023-05-19T01:01:42;93480.38;;;10.95;100.00
12475;BME280;6302;42.624;23.334;2023-05-19T01:04:10;93478.09;;;10.93;100.00
12475;BME280;6302;42.624;23.334;2023-05-19T01:06:41;93484.91;;;10.94;100.00
12475;BME280;6302;42.624;23.334;2023-05-19T01:09:08;93488.31;;;10.95;100.00
12475;BME280;6302;42.624;23.334;2023-05-19T01:11:34;93490.97;;;10.98;100.00
12475;BME280;6302;42.624;23.334;2023-05-19T01:14:01;93488.66;;;11.00;100.00
12475;BME280;6302;42.624;23.334;2023-05-19T01:16:33;93491.31;;;11.00;100.00
12475;BME280;6302;42.624;23.334;2023-05-19T01:19:13;93495.47;;;11.01;100.00
12475;BME280;6302;42.624;23.334;2023-05-19T01:22:10;93493.63;;;10.95;100.00
12475;BME280;6302;42.624;23.334;2023-05-19T01:25:07;93493.31;;;10.86;100.00
12475;BME280;6302;42.624;23.334;2023-05-19T01:27:58;93492.50;;;10.89;100.00
12475;BME280;6302;42.624;23.334;2023-05-19T01:30:36;93490.31;;;10.80;100.00
12475;BME280;6302;42.624;23.334;2023-05-19T01:33:06;93496.34;;;10.81;100.00
12475;BME280;6302;42.624;23.334;2023-05-19T01:35:34;93494.47;;;10.78;100.00
12475;BME280;6302;42.624;23.334;2023-05-19T01:38:03;93490.69;;;10.79;100.00
12475;BME280;6302;42.624;23.334;2023-05-19T01:40:31;93486.13;;;10.79;100.00
12475;BME280;6302;42.624;23.334;2023-05-19T01:43:00;93486.53;;;10.78;100.00
12475;BME280;6302;42.624;23.334;2023-05-19T01:45:28;93488.06;;;10.72;100.00
12475;BME280;6302;42.624;23.334;2023-05-19T01:47:58;93491.50;;;10.69;100.00
12475;BME280;6302;42.624;23.334;2023-05-19T01:50:26;93492.63;;;10.68;100.00
12475;BME280;6302;42.624;23.334;2023-05-19T01:52:54;93483.56;;;10.65;100.00
12475;BME280;6302;42.624;23.334;2023-05-19T01:55:21;93490.00;;;10.64;100.00
12475;BME280;6302;42.624;23.334;2023-05-19T01:57:57;93503.63;;;10.66;100.00
12475;BME280;6302;42.624;23.334;2023-05-19T02:00:32;93499.81;;;10.71;100.00
12475;BME280;6302;42.624;23.334;2023-05-19T02:03:13;93492.66;;;10.64;100.00
12475;BME280;6302;42.624;23.334;2023-05-19T02:05:47;93500.28;;;10.55;100.00
12475;BME280;6302;42.624;23.334;2023-05-19T02:08:22;93502.13;;;10.62;100.00
12475;BME280;6302;42.624;23.334;2023-05-19T02:10:53;93495.69;;;10.66;100.00
12475;BME280;6302;42.624;23.334;2023-05-19T02:13:23;93500.19;;;10.69;100.00
12475;BME280;6302;42.624;23.334;2023-05-19T02:15:57;93497.94;;;10.68;100.00
12475;BME280;6302;42.624;23.334;2023-05-19T02:18:30;93500.19;;;10.73;100.00
12475;BME280;6302;42.624;23.334;2023-05-19T02:20:57;93500.59;;;10.71;100.00
12475;BME280;6302;42.624;23.334;2023-05-19T02:23:24;93502.06;;;10.72;100.00
12475;BME280;6302;42.624;23.334;2023-05-19T02:25:51;93499.81;;;10.67;100.00
12475;BME280;6302;42.624;23.334;2023-05-19T02:28:18;93496.41;;;10.67;100.00
12475;BME280;6302;42.624;23.334;2023-05-19T02:30:45;93505.91;;;10.64;100.00
12475;BME280;6302;42.624;23.334;2023-05-19T02:33:11;93503.25;;;10.64;100.00
12475;BME280;6302;42.624;23.334;2023-05-19T02:35:40;93509.38;;;10.51;100.00
12475;BME280;6302;42.624;23.334;2023-05-19T02:38:06;93510.50;;;10.53;100.00
12475;BME280;6302;42.624;23.334;2023-05-19T02:40:33;93501.47;;;10.40;100.00
12475;BME280;6302;42.624;23.334;2023-05-19T02:43:00;93510.19;;;10.40;100.00
12475;BME280;6302;42.624;23.334;2023-05-19T02:45:27;93502.56;;;10.50;100.00
12475;BME280;6302;42.624;23.334;2023-05-19T02:47:54;93512.03;;;10.47;100.00
12475;BME280;6302;42.624;23.334;2023-05-19T02:50:21;93509.78;;;10.42;100.00
12475;BME280;6302;42.624;23.334;2023-05-19T02:52:49;93501.09;;;10.41;100.00
12475;BME280;6302;42.624;23.334;2023-05-19T02:55:18;93503.72;;;10.45;100.00
12475;BME280;6302;42.624;23.334;2023-05-19T02:57:45;93505.28;;;10.39;100.00
12475;BME280;6302;42.624;23.334;2023-05-19T03:00:12;93516.22;;;10.41;100.00
12475;BME280;6302;42.624;23.334;2023-05-19T03:02:39;93511.69;;;10.41;100.00
12475;BME280;6302;42.624;23.334;2023-05-19T03:05:08;93513.94;;;10.47;100.00
12475;BME280;6302;42.624;23.334;2023-05-19T03:07:35;93510.16;;;10.44;100.00
12475;BME280;6302;42.624;23.334;2023-05-19T03:10:04;93515.47;;;10.37;100.00
12475;BME280;6302;42.624;23.334;2023-05-19T03:12:32;93520.00;;;10.40;100.00
12475;BME280;6302;42.624;23.334;2023-05-19T03:14:59;93514.72;;;10.40;100.00
12475;BME280;6302;42.624;23.334;2023-05-19T03:17:26;93512.78;;;10.48;100.00
12475;BME280;6302;42.624;23.334;2023-05-19T03:19:58;93518.47;;;10.46;100.00
12475;BME280;6302;42.624;23.334;2023-05-19T03:22:25;93518.44;;;10.50;100.00
12475;BME280;6302;42.624;23.334;2023-05-19T03:24:52;93519.97;;;10.54;100.00
12475;BME280;6302;42.624;23.334;2023-05-19T03:27:20;93518.47;;;10.46;100.00
12475;BME280;6302;42.624;23.334;2023-05-19T03:29:47;93522.63;;;10.47;100.00
12475;BME280;6302;42.624;23.334;2023-05-19T03:32:13;93526.03;;;10.51;100.00
12475;BME280;6302;42.624;23.334;2023-05-19T03:34:40;93516.94;;;10.52;100.00
12475;BME280;6302;42.624;23.334;2023-05-19T03:37:07;93519.25;;;10.47;100.00
12475;BME280;6302;42.624;23.334;2023-05-19T03:39:35;93512.44;;;10.49;100.00
12475;BME280;6302;42.624;23.334;2023-05-19T03:42:02;93512.75;;;10.58;100.00
12475;BME280;6302;42.624;23.334;2023-05-19T03:44:30;93516.81;;;10.80;100.00
12475;BME280;6302;42.624;23.334;2023-05-19T03:46:57;93527.41;;;10.80;100.00
12475;BME280;6302;42.624;23.334;2023-05-19T03:49:24;93518.69;;;10.83;100.00
12475;BME280;6302;42.624;23.334;2023-05-19T03:51:50;93526.59;;;10.90;100.00
12475;BME280;6302;42.624;23.334;2023-05-19T03:54:17;93524.28;;;10.99;100.00
12475;BME280;6302;42.624;23.334;2023-05-19T03:56:45;93515.94;;;10.97;100.00
12475;BME280;6302;42.624;23.334;2023-05-19T03:59:12;93516.59;;;11.16;100.00
12475;BME280;6302;42.624;23.334;2023-05-19T04:01:41;93533.63;;;11.18;100.00
12475;BME280;6302;42.624;23.334;2023-05-19T04:04:08;93523.34;;;11.24;100.00
12475;BME280;6302;42.624;23.334;2023-05-19T04:06:35;93527.09;;;11.30;100.00
12475;BME280;6302;42.624;23.334;2023-05-19T04:09:02;93535.41;;;11.35;100.00
12475;BME280;6302;42.624;23.334;2023-05-19T04:11:36;93530.81;;;11.43;100.00
12475;BME280;6302;42.624;23.334;2023-05-19T04:14:04;93528.53;;;11.45;100.00
12475;BME280;6302;42.624;23.334;2023-05-19T04:16:30;93531.53;;;11.47;100.00
12475;BME280;6302;42.624;23.334;2023-05-19T04:18:59;93534.53;;;11.49;100.00
12475;BME280;6302;42.624;23.334;2023-05-19T04:21:26;93533.00;;;11.55;100.00
12475;BME280;6302;42.624;23.334;2023-05-19T04:23:52;93542.78;;;11.61;100.00
12475;BME280;6302;42.624;23.334;2023-05-19T04:26:19;93540.47;;;11.67;100.00
12475;BME280;6302;42.624;23.334;2023-05-19T04:28:47;93549.56;;;11.66;100.00
12475;BME280;6302;42.624;23.334;2023-05-19T04:31:14;93549.19;;;11.71;100.00
12475;BME280;6302;42.624;23.334;2023-05-19T04:33:41;93549.53;;;11.73;100.00
12475;BME280;6302;42.624;23.334;2023-05-19T04:36:09;93549.88;;;11.79;100.00
12475;BME280;6302;42.624;23.334;2023-05-19T04:38:38;93547.91;;;11.86;100.00
12475;BME280;6302;42.624;23.334;2023-05-19T04:41:05;93561.56;;;11.88;100.00
12475;BME280;6302;42.624;23.334;2023-05-19T04:43:35;93560.78;;;11.91;100.00
12475;BME280;6302;42.624;23.334;2023-05-19T04:46:05;93556.19;;;11.95;100.00
12475;BME280;6302;42.624;23.334;2023-05-19T04:48:34;93548.19;;;11.99;100.00
12475;BME280;6302;42.624;23.334;2023-05-19T04:51:01;93562.75;;;12.24;100.00
12475;BME280;6302;42.624;23.334;2023-05-19T04:53:29;93560.13;;;12.21;100.00
12475;BME280;6302;42.624;23.334;2023-05-19T04:55:57;93564.06;;;12.43;100.00
12475;BME280;6302;42.624;23.334;2023-05-19T04:58:25;93570.41;;;12.53;100.00
12475;BME280;6302;42.624;23.334;2023-05-19T05:00:52;93558.94;;;12.59;100.00
12475;BME280;6302;42.624;23.334;2023-05-19T05:03:20;93564.13;;;12.70;100.00
12475;BME280;6302;42.624;23.334;2023-05-19T05:05:48;93565.13;;;12.83;100.00
12475;BME280;6302;42.624;23.334;2023-05-19T05:08:15;93572.13;;;13.00;100.00
12475;BME280;6302;42.624;23.334;2023-05-19T05:10:49;93572.41;;;13.09;100.00
12475;BME280;6302;42.624;23.334;2023-05-19T05:13:17;93574.72;;;13.07;100.00
12475;BME280;6302;42.624;23.334;2023-05-19T05:15:44;93573.81;;;13.21;100.00
12475;BME280;6302;42.624;23.334;2023-05-19T05:18:12;93572.84;;;13.34;100.00
12475;BME280;6302;42.624;23.334;2023-05-19T05:20:40;93559.97;;;13.29;100.00
12475;BME280;6302;42.624;23.334;2023-05-19T05:23:07;93563.38;;;13.56;100.00
12475;BME280;6302;42.624;23.334;2023-05-19T05:25:35;93566.41;;;13.58;100.00
12475;BME280;6302;42.624;23.334;2023-05-19T05:28:06;93569.41;;;13.60;100.00
12475;BME280;6302;42.624;23.334;2023-05-19T05:30:33;93578.56;;;13.59;100.00
12475;BME280;6302;42.624;23.334;2023-05-19T05:33:00;93578.91;;;13.61;100.00
12475;BME280;6302;42.624;23.334;2023-05-19T05:35:27;93570.25;;;13.57;100.00
12475;BME280;6302;42.624;23.334;2023-05-19T05:37:54;93572.59;;;13.52;100.00
12475;BME280;6302;42.624;23.334;2023-05-19T05:40:21;93578.88;;;13.65;100.00
12475;BME280;6302;42.624;23.334;2023-05-19T05:42:48;93587.28;;;13.87;100.00
12475;BME280;6302;42.624;23.334;2023-05-19T05:45:17;93584.72;;;14.03;100.00
12475;BME280;6302;42.624;23.334;2023-05-19T05:47:44;93581.78;;;13.97;100.00
12475;BME280;6302;42.624;23.334;2023-05-19T05:50:12;93588.56;;;14.02;100.00
12475;BME280;6302;42.624;23.334;2023-05-19T05:52:40;93585.03;;;14.08;100.00
12475;BME280;6302;42.624;23.334;2023-05-19T05:55:08;93578.16;;;14.34;100.00
12475;BME280;6302;42.624;23.334;2023-05-19T05:57:35;93595.78;;;14.48;100.00
12475;BME280;6302;42.624;23.334;2023-05-19T06:00:03;93593.47;;;14.50;100.00
12475;BME280;6302;42.624;23.334;2023-05-19T06:02:33;93600.59;;;14.56;100.00
12475;BME280;6302;42.624;23.334;2023-05-19T06:05:01;93602.78;;;14.61;100.00
12475;BME280;6302;42.624;23.334;2023-05-19T06:07:27;93608.69;;;14.72;100.00
12475;BME280;6302;42.624;23.334;2023-05-19T06:09:54;93609.56;;;14.85;100.00
12475;BME280;6302;42.624;23.334;2023-05-19T06:12:21;93614.16;;;14.85;100.00
12475;BME280;6302;42.624;23.334;2023-05-19T06:14:48;93623.88;;;14.75;100.00
12475;BME280;6302;42.624;23.334;2023-05-19T06:17:17;93617.22;;;14.64;100.00
12475;BME280;6302;42.624;23.334;2023-05-19T06:19:45;93616.53;;;14.79;100.00
12475;BME280;6302;42.624;23.334;2023-05-19T06:22:12;93617.16;;;14.67;100.00
12475;BME280;6302;42.624;23.334;2023-05-19T06:24:39;93616.88;;;14.81;100.00
12475;BME280;6302;42.624;23.334;2023-05-19T06:27:06;93618.53;;;14.95;100.00
12475;BME280;6302;42.624;23.334;2023-05-19T06:29:32;93614.22;;;15.01;100.00
12475;BME280;6302;42.624;23.334;2023-05-19T06:31:59;93613.47;;;15.01;100.00
12475;BME280;6302;42.624;23.334;2023-05-19T06:34:26;93611.56;;;15.21;100.00
12475;BME280;6302;42.624;23.334;2023-05-19T06:36:54;93616.03;;;15.24;100.00
12475;BME280;6302;42.624;23.334;2023-05-19T06:39:21;93621.81;;;15.22;100.00
12475;BME280;6302;42.624;23.334;2023-05-19T06:41:49;93614.19;;;15.40;100.00
12475;BME280;6302;42.624;23.334;2023-05-19T06:44:15;93625.41;;;15.51;100.00
12475;BME280;6302;42.624;23.334;2023-05-19T06:46:42;93621.59;;;15.33;100.00
12475;BME280;6302;42.624;23.334;2023-05-19T06:49:09;93619.59;;;15.37;100.00
12475;BME280;6302;42.624;23.334;2023-05-19T06:51:36;93616.41;;;15.45;100.00
12475;BME280;6302;42.624;23.334;2023-05-19T06:54:04;93624.00;;;15.63;100.00
12475;BME280;6302;42.624;23.334;2023-05-19T06:56:35;93622.38;;;15.85;100.00
12475;BME280;6302;42.624;23.334;2023-05-19T06:59:02;93633.91;;;15.82;100.00
12475;BME280;6302;42.624;23.334;2023-05-19T07:01:28;93631.84;;;15.90;100.00
12475;BME280;6302;42.624;23.334;2023-05-19T07:03:56;93639.25;;;15.98;100.00
12475;BME280;6302;42.624;23.334;2023-05-19T07:06:22;93639.59;;;16.16;100.00
12475;BME280;6302;42.624;23.334;2023-05-19T07:08:49;93640.28;;;16.37;100.00
12475;BME280;6302;42.624;23.334;2023-05-19T07:11:17;93642.59;;;16.35;100.00
12475;BME280;6302;42.624;23.334;2023-05-19T07:13:44;93649.88;;;16.34;100.00
12475;BME280;6302;42.624;23.334;2023-05-19T07:16:14;93653.47;;;16.27;100.00
12475;BME280;6302;42.624;23.334;2023-05-19T07:18:40;93661.66;;;16.37;100.00
12475;BME280;6302;42.624;23.334;2023-05-19T07:21:09;93645.44;;;16.44;100.00
12475;BME280;6302;42.624;23.334;2023-05-19T07:23:36;93644.59;;;16.63;100.00
12475;BME280;6302;42.624;23.334;2023-05-19T07:26:12;93652.06;;;16.84;100.00
12475;BME280;6302;42.624;23.334;2023-05-19T07:28:40;93644.13;;;17.09;100.00
12475;BME280;6302;42.624;23.334;2023-05-19T07:31:08;93634.47;;;17.28;100.00
12475;BME280;6302;42.624;23.334;2023-05-19T07:33:35;93648.09;;;17.46;100.00
12475;BME280;6302;42.624;23.334;2023-05-19T07:36:02;93652.13;;;17.67;100.00
12475;BME280;6302;42.624;23.334;2023-05-19T07:38:29;93651.91;;;17.74;100.00
12475;BME280;6302;42.624;23.334;2023-05-19T07:40:58;93652.00;;;17.83;100.00
12475;BME280;6302;42.624;23.334;2023-05-19T07:43:25;93646.31;;;17.55;100.00
12475;BME280;6302;42.624;23.334;2023-05-19T07:45:53;93649.13;;;17.36;100.00
12475;BME280;6302;42.624;23.334;2023-05-19T07:48:21;93642.78;;;17.17;100.00
12475;BME280;6302;42.624;23.334;2023-05-19T07:50:49;93645.06;;;17.31;100.00
12475;BME280;6302;42.624;23.334;2023-05-19T07:53:17;93655.00;;;17.60;100.00
12475;BME280;6302;42.624;23.334;2023-05-19T07:55:45;93647.91;;;17.53;100.00
12475;BME280;6302;42.624;23.334;2023-05-19T07:58:12;93636.78;;;17.54;100.00
12475;BME280;6302;42.624;23.334;2023-05-19T08:00:39;93649.47;;;17.38;100.00
12475;BME280;6302;42.624;23.334;2023-05-19T08:03:09;93646.41;;;17.23;100.00
12475;BME280;6302;42.624;23.334;2023-05-19T08:05:35;93641.84;;;17.36;100.00
12475;BME280;6302;42.624;23.334;2023-05-19T08:08:02;93646.81;;;17.50;100.00
12475;BME280;6302;42.624;23.334;2023-05-19T08:10:29;93644.94;;;17.76;100.00
12475;BME280;6302;42.624;23.334;2023-05-19T08:12:56;93646.03;;;18.04;100.00
12475;BME280;6302;42.624;23.334;2023-05-19T08:15:23;93640.53;;;18.20;100.00
12475;BME280;6302;42.624;23.334;2023-05-19T08:17:49;93652.00;;;18.33;100.00
12475;BME280;6302;42.624;23.334;2023-05-19T08:20:18;93649.31;;;18.33;100.00
12475;BME280;6302;42.624;23.334;2023-05-19T08:22:46;93642.97;;;18.40;100.00
12475;BME280;6302;42.624;23.334;2023-05-19T08:25:13;93648.22;;;18.43;100.00
12475;BME280;6302;42.624;23.334;2023-05-19T08:27:40;93641.88;;;18.62;100.00
12475;BME280;6302;42.624;23.334;2023-05-19T08:30:08;93638.16;;;18.81;100.00
12475;BME280;6302;42.624;23.334;2023-05-19T08:32:35;93643.06;;;18.96;100.00
12475;BME280;6302;42.624;23.334;2023-05-19T08:35:01;93642.31;;;18.95;100.00
12475;BME280;6302;42.624;23.334;2023-05-19T08:37:30;93643.06;;;18.96;100.00
12475;BME280;6302;42.624;23.334;2023-05-19T08:39:56;93643.13;;;19.05;100.00
12475;BME280;6302;42.624;23.334;2023-05-19T08:42:23;93641.06;;;19.30;100.00
12475;BME280;6302;42.624;23.334;2023-05-19T08:44:50;93635.84;;;19.36;100.00
12475;BME280;6302;42.624;23.334;2023-05-19T08:47:17;93639.22;;;19.40;100.00
12475;BME280;6302;42.624;23.334;2023-05-19T08:49:51;93641.50;;;19.51;100.00
12475;BME280;6302;42.624;23.334;2023-05-19T08:52:26;93635.03;;;19.39;100.00
12475;BME280;6302;42.624;23.334;2023-05-19T08:55:03;93637.13;;;19.44;100.00
12475;BME280;6302;42.624;23.334;2023-05-19T08:57:30;93637.13;;;19.22;100.00
12475;BME280;6302;42.624;23.334;2023-05-19T12:18:45;93673.69;;;16.77;100.00
12475;BME280;6302;42.624;23.334;2023-05-19T12:21:12;93668.94;;;16.68;100.00
12475;BME280;6302;42.624;23.334;2023-05-19T12:23:40;93659.00;;;16.53;100.00
12475;BME280;6302;42.624;23.334;2023-05-19T12:26:07;93640.78;;;16.32;100.00
12475;BME280;6302;42.624;23.334;2023-05-19T12:28:35;93646.28;;;16.08;100.00
12475;BME280;6302;42.624;23.334;2023-05-19T12:31:02;93639.91;;;16.02;100.00
12475;BME280;6302;42.624;23.334;2023-05-19T12:33:31;93624.91;;;15.92;100.00
12475;BME280;6302;42.624;23.334;2023-05-19T12:36:00;93617.88;;;15.82;100.00
12475;BME280;6302;42.624;23.334;2023-05-19T12:38:27;93611.34;;;15.83;100.00
12475;BME280;6302;42.624;23.334;2023-05-19T12:40:57;93616.38;;;15.81;100.00
12475;BME280;6302;42.624;23.334;2023-05-19T12:43:24;93610.19;;;15.84;100.00
12475;BME280;6302;42.624;23.334;2023-05-19T12:45:51;93588.16;;;15.96;100.00
12475;BME280;6302;42.624;23.334;2023-05-19T12:48:20;93592.31;;;16.13;100.00
12475;BME280;6302;42.624;23.334;2023-05-19T12:50:50;93583.13;;;16.14;100.00
12475;BME280;6302;42.624;23.334;2023-05-19T12:53:18;93573.59;;;16.13;100.00
12475;BME280;6302;42.624;23.334;2023-05-19T12:55:45;93569.59;;;16.21;100.00
12475;BME280;6302;42.624;23.334;2023-05-19T12:58:14;93565.19;;;16.44;100.00
12475;BME280;6302;42.624;23.334;2023-05-19T13:00:42;93554.47;;;16.60;100.00
12475;BME280;6302;42.624;23.334;2023-05-19T13:03:14;93560.97;;;16.87;100.00
12475;BME280;6302;42.624;23.334;2023-05-19T13:05:43;93552.13;;;17.03;100.00
12475;BME280;6302;42.624;23.334;2023-05-19T13:08:12;93556.25;;;17.33;100.00
12475;BME280;6302;42.624;23.334;2023-05-19T13:10:44;93557.44;;;17.44;100.00
12475;BME280;6302;42.624;23.334;2023-05-19T13:13:11;93560.13;;;17.70;100.00
12475;BME280;6302;42.624;23.334;2023-05-19T13:15:40;93553.03;;;18.01;100.00
12475;BME280;6302;42.624;23.334;2023-05-19T13:18:08;93557.06;;;18.18;100.00
12475;BME280;6302;42.624;23.334;2023-05-19T13:20:38;93563.25;;;18.28;100.00
12475;BME280;6302;42.624;23.334;2023-05-19T13:23:05;93551.59;;;18.22;100.00
12475;BME280;6302;42.624;23.334;2023-05-19T13:25:33;93557.56;;;18.26;100.00
12475;BME280;6302;42.624;23.334;2023-05-19T13:28:02;93561.22;;;18.32;100.00
12475;BME280;6302;42.624;23.334;2023-05-19T13:30:30;93553.69;;;18.39;100.00
12475;BME280;6302;42.624;23.334;2023-05-19T13:32:58;93563.84;;;18.44;100.00
12475;BME280;6302;42.624;23.334;2023-05-19T13:35:26;93549.50;;;18.38;100.00
12475;BME280;6302;42.624;23.334;2023-05-19T13:38:01;93561.06;;;18.48;100.00
12475;BME280;6302;42.624;23.334;2023-05-19T13:40:29;93562.03;;;18.54;100.00
12475;BME280;6302;42.624;23.334;2023-05-19T13:42:57;93561.59;;;18.55;100.00
12475;BME280;6302;42.624;23.334;2023-05-19T13:45:26;93562.22;;;18.59;100.00
12475;BME280;6302;42.624;23.334;2023-05-19T13:47:52;93559.41;;;18.63;100.00
12475;BME280;6302;42.624;23.334;2023-05-19T13:50:19;93559.31;;;18.66;100.00
12475;BME280;6302;42.624;23.334;2023-05-19T13:52:46;93551.88;;;18.70;100.00
12475;BME280;6302;42.624;23.334;2023-05-19T13:55:16;93547.41;;;18.76;100.00
12475;BME280;6302;42.624;23.334;2023-05-19T13:57:43;93545.19;;;18.75;100.00
12475;BME280;6302;42.624;23.334;2023-05-19T14:00:10;93549.88;;;18.83;100.00
12475;BME280;6302;42.624;23.334;2023-05-19T14:02:39;93552.47;;;18.96;100.00
12475;BME280;6302;42.624;23.334;2023-05-19T14:05:08;93555.34;;;19.02;100.00
12475;BME280;6302;42.624;23.334;2023-05-19T14:07:34;93547.38;;;19.11;100.00
12475;BME280;6302;42.624;23.334;2023-05-19T14:10:02;93551.75;;;19.26;100.00
12475;BME280;6302;42.624;23.334;2023-05-19T14:12:30;93547.84;;;19.40;100.00
12475;BME280;6302;42.624;23.334;2023-05-19T14:14:57;93552.38;;;19.52;100.00
12475;BME280;6302;42.624;23.334;2023-05-19T14:17:25;93551.22;;;19.62;100.00
12475;BME280;6302;42.624;23.334;2023-05-19T14:19:54;93554.69;;;19.72;100.00
12475;BME280;6302;42.624;23.334;2023-05-19T14:22:21;93556.34;;;19.78;100.00
12475;BME280;6302;42.624;23.334;2023-05-19T14:24:48;93558.44;;;19.83;100.00
12475;BME280;6302;42.624;23.334;2023-05-19T14:27:16;93557.28;;;19.93;100.00
12475;BME280;6302;42.624;23.334;2023-05-19T14:29:42;93545.06;;;20.01;100.00
12475;BME280;6302;42.624;23.334;2023-05-19T14:32:09;93554.50;;;20.15;100.00
12475;BME280;6302;42.624;23.334;2023-05-19T14:34:36;93556.03;;;20.25;97.52
12475;BME280;6302;42.624;23.334;2023-05-19T14:37:04;93557.53;;;20.26;98.44
12475;BME280;6302;42.624;23.334;2023-05-19T14:39:31;93560.03;;;20.21;80.89
12475;BME280;6302;42.624;23.334;2023-05-19T14:41:58;93555.84;;;20.20;82.31
12475;BME280;6302;42.624;23.334;2023-05-19T14:44:29;93553.47;;;20.22;87.92
12475;BME280;6302;42.624;23.334;2023-05-19T14:46:56;93555.31;;;20.34;89.64
12475;BME280;6302;42.624;23.334;2023-05-19T14:49:22;93557.13;;;20.46;85.98
12475;BME280;6302;42.624;23.334;2023-05-19T14:51:50;93550.53;;;20.38;90.25
12475;BME280;6302;42.624;23.334;2023-05-19T14:54:18;93557.13;;;20.46;88.08
12475;BME280;6302;42.624;23.334;2023-05-19T14:56:44;93560.72;;;20.61;83.70
12475;BME280;6302;42.624;23.334;2023-05-19T14:59:11;93555.03;;;20.68;84.36
12475;BME280;6302;42.624;23.334;2023-05-19T15:01:38;93565.19;;;20.73;80.63
12475;BME280;6302;42.624;23.334;2023-05-19T15:04:05;93561.75;;;20.72;81.76
12475;BME280;6302;42.624;23.334;2023-05-19T15:06:31;93568.03;;;20.79;83.70
12475;BME280;6302;42.624;23.334;2023-05-19T15:08:58;93567.00;;;20.85;85.89
12475;BME280;6302;42.624;23.334;2023-05-19T15:11:26;93567.28;;;20.87;86.41
12475;BME280;6302;42.624;23.334;2023-05-19T15:13:53;93563.66;;;20.99;79.48
12475;BME280;6302;42.624;23.334;2023-05-19T15:16:20;93561.28;;;20.92;86.35
12475;BME280;6302;42.624;23.334;2023-05-19T15:18:47;93558.59;;;20.92;86.44
12475;BME280;6302;42.624;23.334;2023-05-19T15:21:15;93565.34;;;21.06;86.63
12475;BME280;6302;42.624;23.334;2023-05-19T15:23:42;93562.63;;;20.97;88.42
12475;BME280;6302;42.624;23.334;2023-05-19T15:26:09;93555.31;;;20.88;88.27
12475;BME280;6302;42.624;23.334;2023-05-19T15:28:37;93561.28;;;20.92;91.75
12475;BME280;6302;42.624;23.334;2023-05-19T15:31:04;93557.41;;;20.93;89.30
12475;BME280;6302;42.624;23.334;2023-05-19T15:33:31;93559.19;;;20.87;89.97
12475;BME280;6302;42.624;23.334;2023-05-19T15:35:57;93559.50;;;20.80;90.96
12475;BME280;6302;42.624;23.334;2023-05-19T15:38:24;93559.19;;;20.87;92.08
12475;BME280;6302;42.624;23.334;2023-05-19T15:40:51;93550.81;;;20.85;91.33
12475;BME280;6302;42.624;23.334;2023-05-19T15:43:18;93566.53;;;20.87;87.93
12475;BME280;6302;42.624;23.334;2023-05-19T15:45:47;93567.00;;;20.76;89.92
12475;BME280;6302;42.624;23.334;2023-05-19T15:48:16;93570.28;;;20.71;92.15
12475;BME280;6302;42.624;23.334;2023-05-19T15:50:43;93571.63;;;20.66;94.02
12475;BME280;6302;42.624;23.334;2023-05-19T15:53:10;93569.53;;;20.52;94.47
12475;BME280;6302;42.624;23.334;2023-05-19T15:55:37;93566.25;;;20.48;95.88
12475;BME280;6302;42.624;23.334;2023-05-19T15:58:04;93563.25;;;20.46;96.68
12475;BME280;6302;42.624;23.334;2023-05-19T16:00:32;93566.53;;;20.41;98.57
12475;BME280;6302;42.624;23.334;2023-05-19T16:03:00;93575.97;;;20.37;97.11
12475;BME280;6302;42.624;23.334;2023-05-19T16:05:26;93577.44;;;20.29;97.93
12475;BME280;6302;42.624;23.334;2023-05-19T16:07:53;93571.13;;;20.23;98.82
12475;BME280;6302;42.624;23.334;2023-05-19T16:10:20;93573.03;;;20.13;98.80
12475;BME280;6302;42.624;23.334;2023-05-19T16:12:47;93574.06;;;20.06;98.76